Time;durP1;ratioP1;P1;durP2;ratioP2;P2;SDS_P1;SDS_P2;PMS_P1;PMS_P2;Temp;Humidity;BMP_temperature;BMP_pressure;BME280_temperature;BME280_humidity;BME280_pressure;Samples;Min_cycle;Max_cycle;Signal;HPM_P1;HPM_P2
2023/12/30 00:01:48;;;;;;;1.48;1.02;;;9.10;99.90;;;;;;5025856;28;20623;-70
2023/12/30 00:04:16;;;;;;;0.95;0.77;;;9.10;99.90;;;;;;5033774;28;20215;-70
2023/12/30 00:06:44;;;;;;;1.95;1.10;;;9.10;99.90;;;;;;5033288;28;20218;-70
2023/12/30 00:09:13;;;;;;;3.00;0.93;;;9.00;99.90;;;;;;5033044;28;20630;-70
2023/12/30 00:11:41;;;;;;;4.60;1.00;;;9.00;99.90;;;;;;5033045;28;20246;-70
2023/12/30 00:14:09;;;;;;;2.50;1.02;;;9.00;99.90;;;;;;5032419;28;20226;-69
2023/12/30 00:16:39;;;;;;;2.67;0.90;;;9.00;99.90;;;;;;5033258;28;20242;-70
2023/12/30 00:19:07;;;;;;;2.85;1.00;;;9.00;99.90;;;;;;5033068;28;20292;-70
2023/12/30 00:21:35;;;;;;;1.85;0.93;;;8.90;99.90;;;;;;5033587;28;20707;-70
2023/12/30 00:24:03;;;;;;;2.35;1.02;;;8.90;99.90;;;;;;5033747;28;20210;-70
2023/12/30 00:26:33;;;;;;;4.90;0.95;;;8.90;99.90;;;;;;5032788;28;20276;-69
2023/12/30 00:29:01;;;;;;;2.10;1.00;;;8.90;99.90;;;;;;5031906;28;20250;-70
2023/12/30 00:31:30;;;;;;;4.18;0.82;;;8.90;99.90;;;;;;5033456;28;20755;-70
2023/12/30 00:33:59;;;;;;;3.13;0.70;;;8.80;99.90;;;;;;5033174;28;20217;-70
2023/12/30 00:36:27;;;;;;;2.67;0.85;;;8.90;99.90;;;;;;5033184;28;20265;-70
2023/12/30 00:38:55;;;;;;;1.17;0.70;;;8.90;99.90;;;;;;5032829;28;20288;-70
2023/12/30 00:41:22;;;;;;;4.47;1.02;;;8.90;99.90;;;;;;5033244;28;20559;-70
2023/12/30 00:43:52;;;;;;;5.22;0.93;;;8.90;99.90;;;;;;5025187;28;20207;-70
2023/12/30 00:46:20;;;;;;;3.33;0.98;;;8.90;99.90;;;;;;5033045;28;20668;-70
2023/12/30 00:48:48;;;;;;;4.60;0.73;;;8.90;99.90;;;;;;5032728;28;20218;-70
2023/12/30 00:51:24;;;;;;;1.25;0.90;;;8.80;99.90;;;;;;5033280;28;20275;-70
2023/12/30 00:53:52;;;;;;;6.38;0.77;;;8.80;99.90;;;;;;5025046;28;20583;-70
2023/12/30 00:56:20;;;;;;;1.85;0.70;;;8.90;99.90;;;;;;5032598;28;20215;-70
2023/12/30 00:58:48;;;;;;;2.30;0.50;;;8.90;99.90;;;;;;5032173;28;20227;-69
2023/12/30 01:01:17;;;;;;;2.65;0.70;;;8.90;99.90;;;;;;5032807;28;20242;-70
2023/12/30 01:03:45;;;;;;;4.88;0.73;;;8.90;99.90;;;;;;5032686;28;20268;-70
2023/12/30 01:06:14;;;;;;;4.47;0.63;;;8.90;99.90;;;;;;5032744;28;20249;-70
2023/12/30 01:08:41;;;;;;;3.20;0.70;;;8.90;99.90;;;;;;5032445;28;20222;-70
2023/12/30 01:11:09;;;;;;;0.90;0.60;;;8.90;99.90;;;;;;5031612;28;20209;-70
2023/12/30 01:13:37;;;;;;;1.90;0.75;;;8.90;99.90;;;;;;5032242;28;20199;-70
2023/12/30 01:16:06;;;;;;;6.55;0.95;;;8.90;99.90;;;;;;5032561;28;20206;-70
2023/12/30 01:18:35;;;;;;;2.03;0.60;;;8.90;99.90;;;;;;5031696;28;20258;-70
2023/12/30 01:21:03;;;;;;;4.63;0.70;;;8.80;99.90;;;;;;5033044;28;20207;-70
2023/12/30 01:23:32;;;;;;;1.02;0.60;;;8.80;99.90;;;;;;5032362;28;20629;-70
2023/12/30 01:26:00;;;;;;;3.47;0.85;;;8.80;99.90;;;;;;5032456;28;20301;-70
2023/12/30 01:28:28;;;;;;;4.55;1.25;;;8.80;99.90;;;;;;5031778;28;20218;-70
2023/12/30 01:30:56;;;;;;;3.13;1.10;;;8.90;99.90;;;;;;5028577;28;20198;-70
2023/12/30 01:33:24;;;;;;;2.63;0.80;;;8.90;99.90;;;;;;5032290;28;20761;-70
2023/12/30 01:35:53;;;;;;;2.22;0.88;;;8.80;99.90;;;;;;5031987;28;20560;-70
2023/12/30 01:38:21;;;;;;;1.17;0.77;;;8.80;99.90;;;;;;5031462;28;20321;-70
2023/12/30 01:40:49;;;;;;;1.98;0.63;;;8.90;99.90;;;;;;5031896;28;20239;-70
2023/12/30 01:43:24;;;;;;;3.53;0.93;;;8.90;99.90;;;;;;5032032;28;20791;-70
2023/12/30 01:45:53;;;;;;;3.03;0.65;;;8.90;99.90;;;;;;5031987;28;20234;-70
2023/12/30 01:48:21;;;;;;;6.72;0.90;;;8.90;99.90;;;;;;5031272;28;20592;-70
2023/12/30 01:50:49;;;;;;;5.68;0.80;;;8.90;99.90;;;;;;5031933;28;20334;-69
2023/12/30 01:53:19;;;;;;;4.07;0.68;;;8.90;99.90;;;;;;5031768;28;20260;-70
2023/12/30 01:55:50;;;;;;;3.65;0.60;;;8.90;99.90;;;;;;5031518;28;20218;-70
2023/12/30 01:58:18;;;;;;;4.50;0.75;;;8.90;99.90;;;;;;5031477;28;20257;-70
2023/12/30 02:00:47;;;;;;;2.90;0.80;;;8.90;99.90;;;;;;5031678;28;20230;-70
2023/12/30 02:03:15;;;;;;;6.35;1.00;;;8.90;99.90;;;;;;5031054;28;20213;-70
2023/12/30 02:05:43;;;;;;;5.55;0.88;;;8.90;99.90;;;;;;5031319;28;20211;-70
2023/12/30 02:08:11;;;;;;;3.00;0.75;;;8.80;99.90;;;;;;5031110;28;20229;-70
2023/12/30 02:10:40;;;;;;;4.95;0.93;;;8.80;99.90;;;;;;5031584;28;20238;-70
2023/12/30 02:13:08;;;;;;;4.07;0.90;;;8.90;99.90;;;;;;5021729;28;20638;-70
2023/12/30 02:15:36;;;;;;;5.15;0.80;;;8.90;99.90;;;;;;5031267;28;20547;-70
2023/12/30 02:18:05;;;;;;;4.82;1.23;;;8.90;99.90;;;;;;5031218;28;20202;-70
2023/12/30 02:20:33;;;;;;;5.68;0.80;;;8.80;99.90;;;;;;5031129;28;20222;-70
2023/12/30 02:23:03;;;;;;;1.20;0.60;;;8.80;99.90;;;;;;5031259;28;20235;-70
2023/12/30 02:25:31;;;;;;;4.97;0.60;;;8.80;99.90;;;;;;5030847;28;20229;-70
2023/12/30 02:27:59;;;;;;;4.82;0.63;;;8.80;99.90;;;;;;5030439;28;20203;-70
2023/12/30 02:30:27;;;;;;;2.30;0.85;;;8.80;99.90;;;;;;5029412;28;20209;-70
2023/12/30 02:32:57;;;;;;;3.60;0.63;;;8.80;99.90;;;;;;5029682;28;20690;-70
2023/12/30 02:35:27;;;;;;;2.30;0.73;;;8.80;99.90;;;;;;5031229;28;20241;-70
2023/12/30 02:37:55;;;;;;;2.90;0.60;;;8.80;99.90;;;;;;5030559;28;20210;-69
2023/12/30 02:40:24;;;;;;;3.08;0.90;;;8.80;99.90;;;;;;5030536;28;20250;-70
2023/12/30 02:42:51;;;;;;;2.20;0.50;;;8.70;99.90;;;;;;5031345;28;20215;-70
2023/12/30 02:45:19;;;;;;;4.57;0.57;;;8.70;99.90;;;;;;5031026;28;20207;-70
2023/12/30 02:47:47;;;;;;;2.67;0.52;;;8.70;99.90;;;;;;5030575;28;20260;-70
2023/12/30 02:50:15;;;;;;;1.15;0.40;;;8.80;99.90;;;;;;5030872;28;20201;-70
2023/12/30 02:52:43;;;;;;;3.97;0.85;;;8.80;99.90;;;;;;5031072;28;20198;-70
2023/12/30 02:55:11;;;;;;;5.13;0.77;;;8.80;99.90;;;;;;5030632;28;20642;-70
2023/12/30 02:57:40;;;;;;;3.78;0.60;;;8.80;99.90;;;;;;5030780;28;20293;-70
2023/12/30 03:00:17;;;;;;;2.85;0.85;;;8.80;99.90;;;;;;5030862;28;20241;-70
2023/12/30 03:02:46;;;;;;;3.33;0.60;;;8.80;99.90;;;;;;5030915;28;20206;-70
2023/12/30 03:05:14;;;;;;;2.60;0.60;;;8.80;99.90;;;;;;5030743;28;20207;-70
2023/12/30 03:07:42;;;;;;;1.70;0.60;;;8.80;99.90;;;;;;5030789;28;20209;-70
2023/12/30 03:10:11;;;;;;;2.08;0.70;;;8.70;99.90;;;;;;5030456;28;20219;-70
2023/12/30 03:12:41;;;;;;;3.65;1.05;;;8.70;99.90;;;;;;5029638;28;20210;-70
2023/12/30 03:15:10;;;;;;;3.00;0.52;;;8.70;99.90;;;;;;5030581;28;20238;-70
2023/12/30 03:17:37;;;;;;;5.55;0.90;;;8.70;99.90;;;;;;5030433;28;20198;-70
2023/12/30 03:20:09;;;;;;;2.13;0.80;;;8.70;99.90;;;;;;5030385;28;20680;-70
2023/12/30 03:22:37;;;;;;;5.13;0.80;;;8.70;99.90;;;;;;5031038;28;20823;-70
2023/12/30 03:25:06;;;;;;;3.13;0.85;;;8.70;99.90;;;;;;5030806;28;20538;-70
2023/12/30 03:27:35;;;;;;;3.15;1.02;;;8.70;99.90;;;;;;5030483;28;20246;-69
2023/12/30 03:30:05;;;;;;;0.60;0.60;;;8.60;99.90;;;;;;5027072;28;20730;-70
2023/12/30 03:32:33;;;;;;;4.07;0.90;;;8.60;99.90;;;;;;5030645;28;20221;-70
2023/12/30 03:35:01;;;;;;;1.23;0.73;;;8.60;99.90;;;;;;5033505;28;20210;-70
2023/12/30 03:37:28;;;;;;;3.78;0.82;;;8.60;99.90;;;;;;5034177;28;20589;-70
2023/12/30 03:39:56;;;;;;;3.03;0.63;;;8.60;99.90;;;;;;5033528;28;20605;-70
2023/12/30 03:42:27;;;;;;;8.88;0.90;;;8.60;99.90;;;;;;5029706;28;20211;-70
2023/12/30 03:44:54;;;;;;;2.17;0.75;;;8.50;99.90;;;;;;5033892;28;20589;-69
2023/12/30 03:47:24;;;;;;;2.97;0.82;;;8.50;99.90;;;;;;5033787;28;20660;-70
2023/12/30 03:49:52;;;;;;;1.98;0.60;;;8.50;99.90;;;;;;5033422;28;20728;-70
2023/12/30 03:52:20;;;;;;;3.25;0.93;;;8.50;99.90;;;;;;5034416;28;20298;-70
2023/12/30 03:54:48;;;;;;;4.05;0.75;;;8.50;99.90;;;;;;5034146;28;20249;-70
2023/12/30 03:57:16;;;;;;;3.05;0.80;;;8.50;99.90;;;;;;5033699;28;20675;-70
2023/12/30 03:59:43;;;;;;;3.95;0.50;;;8.60;99.90;;;;;;5033864;28;20280;-70
2023/12/30 04:02:12;;;;;;;3.22;0.70;;;8.60;99.90;;;;;;5034117;28;20261;-70
2023/12/30 04:04:43;;;;;;;5.63;0.95;;;8.60;99.90;;;;;;5033828;28;20206;-69
2023/12/30 04:07:10;;;;;;;1.88;0.57;;;8.60;99.90;;;;;;5033705;28;20498;-70
2023/12/30 04:09:38;;;;;;;6.60;0.63;;;8.70;99.90;;;;;;5034194;28;20226;-71
2023/12/30 04:12:07;;;;;;;1.88;0.70;;;8.70;99.90;;;;;;5033200;28;20199;-71
2023/12/30 04:14:35;;;;;;;2.58;0.90;;;8.70;99.90;;;;;;5033712;28;20672;-71
2023/12/30 04:17:03;;;;;;;4.60;1.10;;;8.70;99.90;;;;;;5030466;28;20261;-71
2023/12/30 04:19:30;;;;;;;4.57;0.93;;;8.70;99.90;;;;;;5033512;28;20254;-71
2023/12/30 04:22:00;;;;;;;6.75;1.25;;;8.70;99.90;;;;;;5033715;28;20214;-71
2023/12/30 04:24:28;;;;;;;2.67;0.68;;;8.80;99.90;;;;;;5028327;28;20206;-70
2023/12/30 04:26:55;;;;;;;3.72;0.90;;;8.80;99.90;;;;;;5033420;28;20213;-71
2023/12/30 04:29:24;;;;;;;2.65;0.82;;;8.80;99.90;;;;;;5033257;28;20222;-71
2023/12/30 04:31:52;;;;;;;4.07;0.73;;;8.90;99.90;;;;;;5033466;28;20213;-71
2023/12/30 04:34:20;;;;;;;6.95;1.00;;;8.90;99.90;;;;;;5033723;28;20744;-71
2023/12/30 04:36:48;;;;;;;5.88;1.02;;;8.90;99.90;;;;;;5033151;28;20668;-71
2023/12/30 04:39:17;;;;;;;2.88;0.90;;;8.90;99.90;;;;;;5032926;28;20820;-71
2023/12/30 04:41:45;;;;;;;6.95;1.10;;;8.90;99.90;;;;;;5033370;28;20652;-71
2023/12/30 04:44:13;;;;;;;8.48;0.90;;;9.00;99.90;;;;;;5033252;28;20202;-71
2023/12/30 04:46:41;;;;;;;5.30;0.88;;;9.00;99.90;;;;;;5032905;28;20300;-71
2023/12/30 04:49:10;;;;;;;6.03;0.80;;;9.00;99.90;;;;;;5033070;28;20577;-71
2023/12/30 04:51:38;;;;;;;6.28;1.40;;;9.00;99.90;;;;;;5033356;28;20253;-71
2023/12/30 04:54:06;;;;;;;5.88;1.17;;;9.10;99.90;;;;;;5030844;28;20206;-71
2023/12/30 04:56:35;;;;;;;4.75;1.02;;;9.10;99.90;;;;;;5032930;28;20198;-71
2023/12/30 04:59:03;;;;;;;3.88;0.70;;;9.00;99.90;;;;;;5033002;28;20229;-71
2023/12/30 05:01:31;;;;;;;12.57;1.25;;;9.00;99.90;;;;;;5032765;28;20720;-71
2023/12/30 05:03:59;;;;;;;5.88;1.45;;;9.10;99.90;;;;;;5033013;28;20241;-71
2023/12/30 05:06:29;;;;;;;4.97;1.30;;;9.10;99.90;;;;;;5032540;28;20203;-71
2023/12/30 05:08:58;;;;;;;9.77;0.93;;;9.10;99.90;;;;;;5032825;28;20288;-71
2023/12/30 05:11:26;;;;;;;5.90;1.20;;;9.00;99.90;;;;;;5032674;28;20703;-71
2023/12/30 05:13:55;;;;;;;9.43;1.27;;;9.00;99.90;;;;;;5032985;28;20230;-71
2023/12/30 05:16:23;;;;;;;6.57;1.05;;;9.00;99.90;;;;;;5032370;28;20234;-71
2023/12/30 05:18:51;;;;;;;5.55;1.23;;;9.00;99.90;;;;;;5032078;28;20230;-71
2023/12/30 05:21:19;;;;;;;9.32;1.20;;;9.00;99.90;;;;;;5032531;28;20337;-71
2023/12/30 05:23:47;;;;;;;8.65;0.93;;;8.90;99.90;;;;;;5032691;28;20210;-71
2023/12/30 05:26:14;;;;;;;6.18;1.30;;;8.90;99.90;;;;;;5032172;28;20203;-71
2023/12/30 05:28:42;;;;;;;5.80;0.93;;;9.00;99.90;;;;;;5032717;28;20222;-71
2023/12/30 05:31:11;;;;;;;8.05;1.55;;;9.00;99.90;;;;;;5032644;28;20198;-71
2023/12/30 05:33:40;;;;;;;6.25;1.13;;;9.00;99.90;;;;;;5032533;28;20294;-71
2023/12/30 05:36:09;;;;;;;4.97;0.82;;;9.00;99.90;;;;;;5032025;28;20210;-71
2023/12/30 05:38:36;;;;;;;5.93;0.98;;;9.00;99.90;;;;;;5032316;28;20317;-71
2023/12/30 05:41:04;;;;;;;6.20;1.02;;;9.00;99.90;;;;;;5032113;28;20218;-71
2023/12/30 05:43:32;;;;;;;5.75;1.20;;;9.00;99.90;;;;;;5032296;28;20202;-71
2023/12/30 05:46:00;;;;;;;6.28;1.27;;;9.00;99.90;;;;;;5031854;28;20269;-71
2023/12/30 05:48:29;;;;;;;4.43;1.23;;;9.00;99.90;;;;;;5031519;28;20703;-71
2023/12/30 05:50:57;;;;;;;5.05;0.90;;;9.00;99.90;;;;;;5031963;28;20613;-71
2023/12/30 05:53:25;;;;;;;5.88;1.00;;;9.00;99.90;;;;;;5032032;28;20297;-71
2023/12/30 05:55:53;;;;;;;7.18;1.42;;;9.00;99.90;;;;;;5031098;28;20250;-71
2023/12/30 05:58:21;;;;;;;6.15;1.20;;;8.90;99.90;;;;;;5029000;28;20304;-71
2023/12/30 06:00:49;;;;;;;5.80;0.93;;;8.90;99.90;;;;;;5029711;28;20241;-71
2023/12/30 06:03:17;;;;;;;4.82;1.00;;;8.90;99.90;;;;;;5030204;28;20230;-71
2023/12/30 06:05:46;;;;;;;5.88;1.38;;;8.90;99.90;;;;;;5030213;28;20241;-71
2023/12/30 06:08:14;;;;;;;4.32;0.88;;;8.80;99.90;;;;;;5029708;28;20297;-71
2023/12/30 06:10:42;;;;;;;3.97;0.98;;;8.80;99.90;;;;;;5030227;28;20195;-71
2023/12/30 06:13:10;;;;;;;3.67;0.93;;;8.80;99.90;;;;;;5023624;28;20702;-71
2023/12/30 06:15:38;;;;;;;4.82;1.17;;;8.80;99.90;;;;;;5031981;28;20292;-71
2023/12/30 06:18:06;;;;;;;6.88;1.23;;;8.80;99.90;;;;;;5030800;28;20207;-71
2023/12/30 06:20:35;;;;;;;8.52;1.30;;;8.80;99.90;;;;;;5031461;28;20213;-71
2023/12/30 06:23:04;;;;;;;9.85;1.05;;;8.80;99.90;;;;;;5031464;28;20749;-71
2023/12/30 06:25:32;;;;;;;4.82;1.02;;;8.80;99.90;;;;;;5031132;28;20203;-71
2023/12/30 06:28:01;;;;;;;8.30;1.42;;;8.80;99.90;;;;;;5030718;28;20206;-71
2023/12/30 06:30:29;;;;;;;8.25;1.65;;;8.80;99.90;;;;;;5031346;28;20199;-71
2023/12/30 06:32:58;;;;;;;9.55;1.10;;;8.80;99.90;;;;;;5031291;28;20210;-71
2023/12/30 06:35:27;;;;;;;6.95;1.00;;;8.80;99.90;;;;;;5030255;28;20209;-71
2023/12/30 06:37:54;;;;;;;11.80;1.30;;;8.90;99.90;;;;;;5029181;28;20705;-71
2023/12/30 06:40:24;;;;;;;5.88;1.10;;;8.90;99.90;;;;;;5031111;28;20210;-71
2023/12/30 06:42:52;;;;;;;5.40;1.33;;;8.90;99.90;;;;;;5031140;28;20232;-71
2023/12/30 06:45:21;;;;;;;4.35;1.10;;;8.90;99.90;;;;;;5031141;28;20203;-71
2023/12/30 06:47:49;;;;;;;6.00;1.00;;;8.90;99.90;;;;;;5030936;28;20206;-70
2023/12/30 06:50:19;;;;;;;4.03;1.17;;;9.00;99.90;;;;;;5030881;28;20340;-70
2023/12/30 06:52:49;;;;;;;6.32;0.63;;;9.00;99.90;;;;;;5031118;28;20203;-70
2023/12/30 06:55:17;;;;;;;5.50;1.00;;;9.00;99.90;;;;;;5030192;28;20222;-71
2023/12/30 06:57:56;;;;;;;4.90;0.80;;;9.00;99.90;;;;;;5030501;28;20238;-70
2023/12/30 07:00:24;;;;;;;3.85;0.70;;;8.90;99.90;;;;;;5029066;28;20206;-72
2023/12/30 07:02:52;;;;;;;3.70;1.50;;;8.90;99.90;;;;;;5028056;28;20234;-72
2023/12/30 07:05:20;;;;;;;2.00;0.70;;;9.00;99.90;;;;;;5028415;28;20203;-73
2023/12/30 07:07:48;;;;;;;6.35;1.00;;;8.90;99.90;;;;;;5026867;28;20268;-72
2023/12/30 07:10:17;;;;;;;2.30;0.40;;;8.90;99.90;;;;;;5034299;28;20207;-72
2023/12/30 07:12:45;;;;;;;5.68;0.55;;;8.90;99.90;;;;;;5035157;28;20672;-72
2023/12/30 07:15:14;;;;;;;2.80;0.47;;;8.90;99.90;;;;;;5026422;28;20595;-72
2023/12/30 07:17:44;;;;;;;4.75;0.60;;;8.90;99.90;;;;;;5034721;28;20207;-72
2023/12/30 07:20:12;;;;;;;5.07;0.90;;;8.90;99.90;;;;;;5034721;28;20226;-72
2023/12/30 07:22:40;;;;;;;3.00;0.60;;;8.90;99.90;;;;;;5035187;28;20223;-73
2023/12/30 07:25:09;;;;;;;1.30;0.60;;;8.90;99.90;;;;;;5034397;28;20284;-72
2023/12/30 07:27:36;;;;;;;2.47;0.43;;;8.90;99.90;;;;;;5034596;28;20211;-72
2023/12/30 07:30:05;;;;;;;5.90;0.80;;;8.90;99.90;;;;;;5034143;28;20260;-73
2023/12/30 07:32:35;;;;;;;2.85;0.52;;;8.90;99.90;;;;;;5035517;28;20249;-72
2023/12/30 07:35:05;;;;;;;3.42;0.70;;;8.90;99.90;;;;;;5034585;28;20210;-72
2023/12/30 07:37:33;;;;;;;4.50;0.70;;;8.90;99.90;;;;;;5034689;28;20291;-72
2023/12/30 07:40:02;;;;;;;5.65;0.65;;;9.00;99.90;;;;;;5033647;28;20254;-72
2023/12/30 07:42:30;;;;;;;3.05;0.70;;;9.00;99.90;;;;;;5034519;28;20245;-72
2023/12/30 07:44:58;;;;;;;1.70;0.65;;;9.00;99.90;;;;;;5034276;28;20742;-72
2023/12/30 07:47:26;;;;;;;1.48;0.50;;;9.00;99.90;;;;;;5034393;28;20207;-72
2023/12/30 07:49:55;;;;;;;5.80;0.90;;;9.00;99.90;;;;;;5033898;28;20733;-72
2023/12/30 07:52:23;;;;;;;4.30;0.50;;;9.00;99.90;;;;;;5034380;28;20257;-72
2023/12/30 07:54:51;;;;;;;3.00;0.60;;;9.00;99.90;;;;;;5033799;28;20704;-72
2023/12/30 07:57:20;;;;;;;5.47;0.50;;;9.00;99.90;;;;;;5033842;28;20207;-72
2023/12/30 07:59:49;;;;;;;2.55;0.40;;;9.00;99.90;;;;;;5034211;28;20261;-72
2023/12/30 08:02:17;;;;;;;3.92;0.95;;;9.00;99.90;;;;;;5033542;28;20229;-72
2023/12/30 08:04:45;;;;;;;3.85;0.63;;;9.00;99.90;;;;;;5033781;28;20217;-72
2023/12/30 08:07:16;;;;;;;4.07;1.13;;;9.00;99.90;;;;;;5033591;28;20687;-72
2023/12/30 08:09:44;;;;;;;3.20;0.70;;;9.00;99.90;;;;;;5033995;28;20596;-72
2023/12/30 08:12:12;;;;;;;4.97;1.35;;;9.00;99.90;;;;;;5033827;28;20202;-73
2023/12/30 08:14:40;;;;;;;2.67;0.90;;;9.00;99.90;;;;;;5033708;28;20203;-72
2023/12/30 08:17:08;;;;;;;8.55;0.90;;;9.00;99.90;;;;;;5033578;28;20206;-72
2023/12/30 08:19:36;;;;;;;5.70;1.40;;;9.10;99.90;;;;;;5032666;28;20223;-72
2023/12/30 08:22:04;;;;;;;3.58;1.40;;;9.00;99.90;;;;;;5033239;28;20234;-72
2023/12/30 08:24:33;;;;;;;3.35;1.50;;;9.00;99.90;;;;;;5033711;28;20210;-72
2023/12/30 08:27:01;;;;;;;8.45;1.55;;;9.00;99.90;;;;;;5033499;28;20211;-72
2023/12/30 08:29:30;;;;;;;5.07;1.10;;;9.00;99.90;;;;;;5033530;28;20309;-72
2023/12/30 08:31:58;;;;;;;3.72;1.23;;;9.00;99.90;;;;;;5031824;28;20203;-72
2023/12/30 08:34:27;;;;;;;8.52;1.75;;;9.10;99.90;;;;;;5024729;28;20207;-72
2023/12/30 08:36:56;;;;;;;7.63;1.30;;;9.10;99.90;;;;;;5032629;28;20249;-73
2023/12/30 08:39:24;;;;;;;6.95;1.63;;;9.10;99.90;;;;;;5032520;28;20222;-73
2023/12/30 08:41:53;;;;;;;8.20;1.60;;;9.10;99.90;;;;;;5032903;28;20210;-72
2023/12/30 08:44:21;;;;;;;6.88;1.30;;;9.20;99.90;;;;;;5025962;28;20203;-72
2023/12/30 08:46:49;;;;;;;9.95;1.48;;;9.20;99.90;;;;;;5031341;28;20298;-72
2023/12/30 08:49:17;;;;;;;5.60;1.90;;;9.20;99.90;;;;;;5028357;28;20219;-72
2023/12/30 08:51:45;;;;;;;10.55;1.58;;;9.30;99.90;;;;;;5032731;28;20218;-72
2023/12/30 08:54:13;;;;;;;7.05;1.63;;;9.30;99.90;;;;;;5032961;28;20679;-72
2023/12/30 08:56:40;;;;;;;9.18;1.88;;;9.30;99.90;;;;;;5032604;28;20606;-72
2023/12/30 08:59:10;;;;;;;9.98;1.83;;;9.40;99.90;;;;;;5032294;28;20285;-72
2023/12/30 09:01:37;;;;;;;10.63;1.92;;;9.40;99.90;;;;;;5032560;28;20290;-72
2023/12/30 09:04:05;;;;;;;4.03;1.50;;;9.50;99.90;;;;;;5033116;28;20293;-72
2023/12/30 09:06:33;;;;;;;9.85;1.85;;;9.50;99.90;;;;;;5031377;28;20207;-72
2023/12/30 09:09:02;;;;;;;7.07;1.50;;;9.60;99.90;;;;;;5032808;28;20231;-73
2023/12/30 09:11:30;;;;;;;3.60;1.42;;;9.60;99.90;;;;;;5032769;28;20207;-72
2023/12/30 09:13:58;;;;;;;6.13;1.55;;;9.60;99.90;;;;;;5032942;28;20246;-72
2023/12/30 09:16:27;;;;;;;8.77;2.00;;;9.70;99.90;;;;;;5024745;28;20531;-72
2023/12/30 09:18:55;;;;;;;7.15;2.25;;;9.70;99.90;;;;;;5032514;28;20223;-72
2023/12/30 09:21:23;;;;;;;12.65;2.00;;;9.70;99.90;;;;;;5033042;28;20210;-72
2023/12/30 09:23:50;;;;;;;8.27;1.60;;;9.70;99.90;;;;;;5032734;28;20235;-72
2023/12/30 09:26:18;;;;;;;7.88;1.58;;;9.70;99.90;;;;;;5031822;28;20268;-72
2023/12/30 09:28:46;;;;;;;5.03;1.45;;;9.80;99.90;;;;;;5032233;28;20265;-72
2023/12/30 09:31:14;;;;;;;7.15;1.42;;;9.80;99.90;;;;;;5031718;28;20238;-72
2023/12/30 09:33:43;;;;;;;8.23;1.65;;;9.80;99.90;;;;;;5032521;28;20299;-72
2023/12/30 09:36:12;;;;;;;8.45;1.35;;;9.90;99.90;;;;;;5031719;28;20672;-72
2023/12/30 09:38:39;;;;;;;7.18;1.95;;;9.90;99.90;;;;;;5032291;28;20288;-72
2023/12/30 09:41:07;;;;;;;9.55;1.50;;;10.00;99.90;;;;;;5032104;28;20206;-72
2023/12/30 09:43:35;;;;;;;7.90;1.83;;;10.00;99.90;;;;;;5032696;28;20285;-72
2023/12/30 09:46:03;;;;;;;3.70;1.20;;;10.10;99.90;;;;;;5032355;28;20214;-73
2023/12/30 09:48:32;;;;;;;8.23;1.30;;;10.10;99.90;;;;;;5031634;28;20226;-72
2023/12/30 09:51:02;;;;;;;8.07;1.67;;;10.10;99.90;;;;;;5032419;28;20210;-72
2023/12/30 09:53:30;;;;;;;9.40;1.90;;;10.20;99.90;;;;;;5032211;28;20198;-72
2023/12/30 09:55:58;;;;;;;11.82;1.45;;;10.30;99.90;;;;;;5031332;28;20215;-72
2023/12/30 09:58:26;;;;;;;4.90;1.20;;;10.30;99.90;;;;;;5023773;28;20222;-72
2023/12/30 10:00:54;;;;;;;4.57;1.50;;;10.40;99.90;;;;;;5031789;28;20210;-72
2023/12/30 10:03:23;;;;;;;6.25;1.10;;;10.50;99.90;;;;;;5031913;28;20277;-72
2023/12/30 10:05:52;;;;;;;7.10;1.77;;;10.50;99.90;;;;;;5031929;28;20302;-72
2023/12/30 10:08:21;;;;;;;8.38;1.45;;;10.60;99.90;;;;;;5030810;28;20226;-72
2023/12/30 10:10:50;;;;;;;9.52;1.42;;;10.80;99.90;;;;;;5065014;22;20749;-58
2023/12/30 10:13:22;;;;;;;7.43;1.92;;;11.00;99.90;;;;;;5063638;28;20209;-58
2023/12/30 10:15:50;;;;;;;5.60;1.45;;;11.20;99.90;;;;;;5071525;28;20197;-58
2023/12/30 10:18:18;;;;;;;4.38;1.48;;;11.20;99.90;;;;;;5071419;28;20622;-58
2023/12/30 10:20:46;;;;;;;6.72;1.70;;;11.20;99.90;;;;;;5050246;28;20216;-57
2023/12/30 10:23:14;;;;;;;7.65;2.00;;;11.20;99.90;;;;;;5052668;28;20698;-58
2023/12/30 10:25:44;;;;;;;9.10;1.60;;;11.20;99.90;;;;;;5049268;28;20255;-58
2023/12/30 10:28:12;;;;;;;7.00;1.98;;;11.10;99.90;;;;;;5059465;28;20697;-58
2023/12/30 10:30:39;;;;;;;5.53;1.27;;;11.20;99.90;;;;;;5059664;28;20205;-57
2023/12/30 10:33:08;;;;;;;5.93;1.48;;;11.20;99.90;;;;;;5055221;28;20205;-58
2023/12/30 10:35:36;;;;;;;5.88;1.40;;;11.30;99.90;;;;;;5050779;28;20212;-58
2023/12/30 10:38:04;;;;;;;12.98;1.50;;;11.40;99.90;;;;;;5050703;28;20233;-58
2023/12/30 10:40:32;;;;;;;7.60;1.70;;;11.50;99.90;;;;;;5059747;28;20644;-57
2023/12/30 10:43:01;;;;;;;4.25;1.08;;;11.50;99.90;;;;;;5050724;28;20210;-57
2023/12/30 10:45:31;;;;;;;6.82;1.17;;;11.60;99.90;;;;;;5047057;28;20213;-58
2023/12/30 10:48:00;;;;;;;9.15;1.77;;;11.60;99.90;;;;;;5075260;22;20646;-59
2023/12/30 10:50:28;;;;;;;7.55;1.55;;;11.50;99.90;;;;;;5038795;28;20202;-59
2023/12/30 10:53:01;;;;;;;7.07;1.42;;;11.50;99.90;;;;;;5039614;28;20328;-59
2023/12/30 10:55:32;;;;;;;6.63;1.02;;;11.40;99.90;;;;;;5034557;28;20260;-58
2023/12/30 10:58:07;;;;;;;7.55;1.73;;;11.40;99.90;;;;;;5041674;28;20633;-59
2023/12/30 11:00:36;;;;;;;5.07;1.38;;;11.30;99.90;;;;;;5038609;28;20203;-58
2023/12/30 11:03:04;;;;;;;6.28;1.40;;;11.20;99.90;;;;;;5039551;28;20665;-59
2023/12/30 11:05:36;;;;;;;8.48;1.10;;;11.20;99.90;;;;;;5042487;28;20206;-59
2023/12/30 11:08:04;;;;;;;6.35;1.30;;;11.20;99.90;;;;;;5041432;28;20226;-59
2023/12/30 11:10:33;;;;;;;6.72;1.25;;;11.20;99.90;;;;;;5038589;28;20206;-59
2023/12/30 11:13:01;;;;;;;7.57;1.52;;;11.20;99.90;;;;;;5039206;28;20245;-61
2023/12/30 11:15:31;;;;;;;4.80;1.33;;;11.20;99.90;;;;;;5042582;28;20651;-58
2023/12/30 11:17:59;;;;;;;6.70;1.25;;;11.20;99.90;;;;;;5042433;28;20579;-59
2023/12/30 11:20:29;;;;;;;4.85;1.15;;;11.20;99.90;;;;;;5039293;28;20210;-59
2023/12/30 11:22:58;;;;;;;6.50;1.60;;;11.20;99.90;;;;;;5039234;28;20218;-59
2023/12/30 11:25:35;;;;;;;8.05;1.65;;;11.20;99.90;;;;;;5042897;28;20221;-59
2023/12/30 11:28:13;;;;;;;5.22;1.30;;;11.20;99.90;;;;;;5042196;28;20244;-58
2023/12/30 11:30:45;;;;;;;7.43;1.25;;;11.30;99.90;;;;;;5039090;28;20202;-59
2023/12/30 11:33:14;;;;;;;7.28;1.42;;;11.30;99.90;;;;;;5048286;28;20260;-59
2023/12/30 11:35:42;;;;;;;5.82;1.25;;;11.30;99.90;;;;;;5042460;28;20198;-58
2023/12/30 11:38:12;;;;;;;3.25;0.98;;;11.30;99.90;;;;;;5041187;28;20298;-58
2023/12/30 11:40:41;;;;;;;7.07;1.38;;;11.40;99.90;;;;;;5039087;28;20253;-57
2023/12/30 11:43:10;;;;;;;6.00;1.10;;;11.50;99.90;;;;;;5039148;28;20207;-57
2023/12/30 11:45:38;;;;;;;8.82;1.10;;;11.50;99.90;;;;;;5038977;28;20207;-58
2023/12/30 11:48:07;;;;;;;5.05;1.45;;;11.60;99.90;;;;;;5031122;28;20230;-56
2023/12/30 11:50:35;;;;;;;5.30;1.17;;;11.70;99.90;;;;;;5038470;28;20584;-57
2023/12/30 11:53:04;;;;;;;6.60;1.63;;;11.80;99.90;;;;;;5044369;28;20303;-58
2023/12/30 11:55:32;;;;;;;5.07;1.40;;;11.90;99.90;;;;;;5042432;28;20194;-58
2023/12/30 11:58:00;;;;;;;2.83;1.00;;;11.90;99.90;;;;;;5038463;28;20734;-58
2023/12/30 12:00:28;;;;;;;2.25;0.93;;;11.90;99.90;;;;;;5047966;28;20205;-58
2023/12/30 12:02:57;;;;;;;4.20;1.10;;;11.90;99.90;;;;;;5052973;28;20304;-58
2023/12/30 12:05:26;;;;;;;6.07;1.17;;;11.90;99.90;;;;;;5043056;28;20226;-58
2023/12/30 12:07:54;;;;;;;6.13;1.17;;;11.80;99.90;;;;;;5034120;28;20227;-58
2023/12/30 12:10:22;;;;;;;4.97;1.15;;;11.80;99.90;;;;;;5050696;28;20194;-58
2023/12/30 12:12:50;;;;;;;5.47;1.13;;;11.70;99.90;;;;;;5041016;28;20264;-58
2023/12/30 12:15:18;;;;;;;4.38;1.00;;;11.70;99.90;;;;;;5053669;28;20234;-58
2023/12/30 12:17:46;;;;;;;8.18;1.50;;;11.60;99.90;;;;;;5052573;28;20308;-60
2023/12/30 12:20:14;;;;;;;12.02;1.40;;;11.50;99.90;;;;;;5044336;28;20213;-58
2023/12/30 12:22:46;;;;;;;8.75;1.27;;;11.50;99.90;;;;;;5047165;28;20209;-58
2023/12/30 12:25:14;;;;;;;8.13;1.50;;;11.40;99.90;;;;;;5044171;28;20258;-58
2023/12/30 12:27:42;;;;;;;6.40;1.20;;;11.40;99.90;;;;;;5038715;28;20226;-57
2023/12/30 12:30:10;;;;;;;8.68;1.23;;;11.40;99.90;;;;;;5044324;28;20671;-58
2023/12/30 12:32:38;;;;;;;4.38;1.17;;;11.40;99.90;;;;;;5033809;28;20203;-58
2023/12/30 12:35:07;;;;;;;6.38;1.25;;;11.40;99.90;;;;;;5040944;28;20198;-58
2023/12/30 12:37:36;;;;;;;9.32;1.35;;;11.30;99.90;;;;;;5042363;28;20309;-58
2023/12/30 12:40:10;;;;;;;7.80;1.45;;;11.30;99.90;;;;;;5034520;28;20579;-59
2023/12/30 12:42:38;;;;;;;6.78;1.27;;;11.30;99.90;;;;;;5037890;28;20198;-59
2023/12/30 12:45:07;;;;;;;6.25;1.42;;;11.30;99.90;;;;;;5037314;28;20230;-59
2023/12/30 12:47:35;;;;;;;7.60;1.50;;;11.30;99.90;;;;;;5044485;28;20190;-58
2023/12/30 12:50:04;;;;;;;10.43;1.65;;;11.30;99.90;;;;;;5049859;28;20210;-58
2023/12/30 12:52:32;;;;;;;8.00;1.35;;;11.30;99.90;;;;;;5053324;28;20210;-59
2023/12/30 12:55:00;;;;;;;7.45;0.88;;;11.30;99.90;;;;;;5046248;28;20199;-58
2023/12/30 12:57:29;;;;;;;5.80;1.05;;;11.30;99.90;;;;;;5041518;28;20210;-58
2023/12/30 12:59:59;;;;;;;5.88;1.17;;;11.30;99.90;;;;;;5033586;28;20213;-58